ルクソール の空港の天気 - METARとTAF

ルクソール国際空港 ( HELX / LXR ) - エジプト ルクソール
飛行場実況気象(Metar)
観測時間08/11 08:00 EET (08/11 06:00 UTC)
風向・風速西南西 1m/s
視程10km以上
天気現象
なし
気温35℃
湿度25%
気圧1009hPa
METARHELX 110600Z 24002KT CAVOK 35/12 Q1009 NOSIG
過去の天気等 Google飛行場航空写真 Wunderground天気予報

過去48時間のMETAR

飛行場予報(TAF)
発表時間: 8/11 07:40 EET (8/11 05:40 UTC)
予報対象時間: 11日8時 EET ~ 12日14時 EET
風向・風速北西 4m/s
視程6000m
なし
TAF COR HELX 110540Z 1106/1212 32008KT 6000 NSC